Time;durP1;ratioP1;P1;durP2;ratioP2;P2;SDS_P1;SDS_P2;PMS_P1;PMS_P2;Temp;Humidity;BMP_temperature;BMP_pressure;BME280_temperature;BME280_humidity;BME280_pressure;Samples;Min_cycle;Max_cycle;Signal;HPM_P1;HPM_P2
2021/06/01 00:01:35;;;;;;;11.68;7.10;;;17.20;99.90;;;;;;1840517;78;21125;-71
2021/06/01 00:04:04;;;;;;;12.05;7.78;;;17.20;99.90;;;;;;1861652;76;21145;-71
2021/06/01 00:06:31;;;;;;;12.63;7.28;;;17.10;99.90;;;;;;1823289;76;21093;-71
2021/06/01 00:08:58;;;;;;;8.88;7.42;;;17.10;99.90;;;;;;1831740;76;21101;-70
2021/06/01 00:11:26;;;;;;;13.13;7.50;;;17.00;99.90;;;;;;1815389;78;22457;-71
2021/06/01 00:13:54;;;;;;;15.35;8.00;;;17.00;99.90;;;;;;1828331;77;21142;-71
2021/06/01 00:16:22;;;;;;;12.78;7.65;;;17.00;99.90;;;;;;1820562;77;21205;-72
2021/06/01 00:18:51;;;;;;;10.30;7.70;;;16.90;99.90;;;;;;1826139;77;21231;-72
2021/06/01 00:21:19;;;;;;;11.28;8.00;;;16.90;99.90;;;;;;1818824;76;21328;-72
2021/06/01 00:23:47;;;;;;;13.22;7.30;;;16.90;99.90;;;;;;1821397;76;21215;-72
2021/06/01 00:26:14;;;;;;;10.58;7.70;;;16.90;99.90;;;;;;1833238;76;21689;-71
2021/06/01 00:28:42;;;;;;;11.45;7.70;;;16.80;99.90;;;;;;1829096;78;21199;-71
2021/06/01 00:31:09;;;;;;;13.45;8.23;;;16.80;99.90;;;;;;1813191;78;21058;-71
2021/06/01 00:33:38;;;;;;;13.00;7.95;;;16.80;99.90;;;;;;1827295;75;21096;-69
2021/06/01 00:36:06;;;;;;;13.58;8.40;;;16.70;99.90;;;;;;1920381;74;21086;-69
2021/06/01 00:38:34;;;;;;;11.28;8.30;;;16.70;99.90;;;;;;1918819;73;21059;-69
2021/06/01 00:41:02;;;;;;;12.53;8.70;;;16.70;99.90;;;;;;1924309;74;21143;-69
2021/06/01 00:43:30;;;;;;;14.53;8.63;;;16.60;99.90;;;;;;1920466;74;21649;-68
2021/06/01 00:45:57;;;;;;;15.83;9.28;;;16.60;99.90;;;;;;1923022;73;21106;-68
2021/06/01 00:48:25;;;;;;;15.20;9.35;;;16.60;99.90;;;;;;1922561;74;21516;-68
2021/06/01 00:50:53;;;;;;;15.75;9.45;;;16.70;99.90;;;;;;1922686;74;21073;-69
2021/06/01 00:53:21;;;;;;;10.88;9.33;;;16.60;99.90;;;;;;1917964;74;21114;-69
2021/06/01 00:55:49;;;;;;;14.20;9.45;;;16.60;99.90;;;;;;1922932;74;21086;-69
2021/06/01 00:58:16;;;;;;;11.30;9.15;;;16.50;99.90;;;;;;1920799;74;21549;-69
2021/06/01 01:03:29;;;;;;;14.70;9.85;;;16.40;99.90;;;;;;1921084;74;21132;-69
2021/06/01 01:06:03;;;;;;;12.15;9.85;;;16.40;99.90;;;;;;1923355;74;21087;-69
2021/06/01 01:08:56;;;;;;;13.72;10.18;;;16.30;99.90;;;;;;1920592;73;21220;-68
2021/06/01 01:11:07;;;;;;;16.27;9.78;;;16.30;99.90;;;;;;1908846;74;21712;-69
2021/06/01 01:13:38;;;;;;;17.50;10.55;;;16.30;99.90;;;;;;1921127;73;21121;-69
2021/06/01 01:16:07;;;;;;;14.73;10.82;;;16.20;99.90;;;;;;1869276;74;21070;-70
2021/06/01 01:18:36;;;;;;;16.15;11.75;;;16.20;99.90;;;;;;1920473;73;21565;-69
2021/06/01 01:21:24;;;;;;;13.95;11.38;;;16.30;99.90;;;;;;1921516;74;21066;-69
2021/06/01 01:23:57;;;;;;;15.50;11.95;;;16.30;99.90;;;;;;1918445;74;21621;-69
2021/06/01 01:26:44;;;;;;;18.48;10.30;;;16.20;99.90;;;;;;1921999;74;21078;-70
2021/06/01 01:29:14;;;;;;;12.30;9.85;;;16.20;99.90;;;;;;1919265;74;21579;-69
2021/06/01 01:31:48;;;;;;;11.50;10.28;;;16.20;99.90;;;;;;1921885;74;21031;-70
2021/06/01 01:34:18;;;;;;;19.62;11.78;;;16.20;99.90;;;;;;1917847;74;21084;-70
2021/06/01 01:36:48;;;;;;;13.80;11.80;;;16.20;99.90;;;;;;1920562;74;20996;-69
2021/06/01 01:39:16;;;;;;;17.30;12.03;;;16.10;99.90;;;;;;1923755;74;21031;-70
2021/06/01 01:41:46;;;;;;;18.23;12.82;;;16.10;99.90;;;;;;1921941;74;21795;-69
2021/06/01 01:44:16;;;;;;;15.53;11.90;;;16.10;99.90;;;;;;1924358;74;21133;-69
2021/06/01 01:49:19;;;;;;;15.20;10.13;;;16.00;99.90;;;;;;1925457;73;22151;-69
2021/06/01 01:51:49;;;;;;;14.13;11.55;;;16.00;99.90;;;;;;1916238;74;21047;-69
2021/06/01 01:54:22;;;;;;;16.55;11.65;;;16.00;99.90;;;;;;1923735;74;21200;-69
2021/06/01 01:56:53;;;;;;;19.40;12.30;;;15.90;99.90;;;;;;1917884;74;21083;-69
2021/06/01 01:59:26;;;;;;;14.55;11.68;;;15.90;99.90;;;;;;1922563;73;21626;-68
2021/06/01 02:01:54;;;;;;;15.20;12.13;;;15.90;99.90;;;;;;1923556;74;21775;-68
2021/06/01 02:04:31;;;;;;;14.98;11.83;;;15.90;99.90;;;;;;1920085;73;21095;-68
2021/06/01 02:06:59;;;;;;;15.05;11.55;;;15.90;99.90;;;;;;1921902;74;21074;-69
2021/06/01 02:09:27;;;;;;;13.20;11.10;;;15.90;99.90;;;;;;1918218;74;21082;-69
2021/06/01 02:11:55;;;;;;;15.28;11.40;;;15.90;99.90;;;;;;1924286;74;21555;-68
2021/06/01 02:14:23;;;;;;;12.80;10.35;;;15.80;99.90;;;;;;1920854;74;21195;-68
2021/06/01 02:16:53;;;;;;;17.23;11.50;;;15.80;99.90;;;;;;1920799;74;21070;-70
2021/06/01 02:19:22;;;;;;;14.18;10.60;;;15.80;99.90;;;;;;1924210;74;21666;-68
2021/06/01 02:22:38;;;;;;;15.05;10.50;;;15.80;99.90;;;;;;1919457;74;21093;-69
2021/06/01 02:24:39;;;;;;;12.37;10.55;;;15.80;99.90;;;;;;1916999;73;21196;-69
2021/06/01 02:27:22;;;;;;;12.07;10.23;;;15.70;99.90;;;;;;1917002;74;21035;-69
2021/06/01 02:30:04;;;;;;;13.75;11.22;;;15.70;99.90;;;;;;1922604;73;21106;-70
2021/06/01 02:32:43;;;;;;;15.15;11.48;;;15.60;99.90;;;;;;1918982;74;21070;-70
2021/06/01 02:35:14;;;;;;;14.58;11.33;;;15.60;99.90;;;;;;1921773;74;21160;-70
2021/06/01 02:37:44;;;;;;;17.35;10.00;;;15.60;99.90;;;;;;1917919;74;21099;-70
2021/06/01 02:40:14;;;;;;;15.53;11.05;;;15.60;99.90;;;;;;1904861;74;21453;-70
2021/06/01 02:42:43;;;;;;;13.55;10.35;;;15.60;99.90;;;;;;1909183;74;21190;-70
2021/06/01 02:45:13;;;;;;;13.48;10.45;;;15.50;99.90;;;;;;1895306;74;21093;-70
2021/06/01 02:47:41;;;;;;;12.95;9.38;;;15.50;99.90;;;;;;1907225;74;21073;-69
2021/06/01 02:50:14;;;;;;;11.95;10.50;;;15.50;99.90;;;;;;1874985;75;21104;-69
2021/06/01 02:52:44;;;;;;;13.03;9.98;;;15.40;99.90;;;;;;1906235;74;21085;-70
2021/06/01 02:55:15;;;;;;;15.80;9.80;;;15.40;99.90;;;;;;1874600;75;21181;-69
2021/06/01 02:57:42;;;;;;;16.15;10.72;;;15.40;99.90;;;;;;1902801;74;21101;-70
2021/06/01 03:00:13;;;;;;;19.00;10.93;;;15.40;99.90;;;;;;1897046;75;21142;-69
2021/06/01 03:02:40;;;;;;;19.02;9.90;;;15.40;99.90;;;;;;1906545;74;21569;-69
2021/06/01 03:05:09;;;;;;;14.03;9.45;;;15.30;99.90;;;;;;1871586;75;21088;-69
2021/06/01 03:07:41;;;;;;;14.43;10.35;;;15.30;99.90;;;;;;1878311;75;21140;-69
2021/06/01 03:10:11;;;;;;;13.48;9.95;;;15.30;99.90;;;;;;1872569;75;21155;-69
2021/06/01 03:12:57;;;;;;;13.00;9.63;;;15.30;99.90;;;;;;1873241;76;22222;-69
2021/06/01 03:15:22;;;;;;;13.32;10.25;;;15.20;99.90;;;;;;1872101;75;21676;-69
2021/06/01 03:17:49;;;;;;;14.38;11.03;;;15.20;99.90;;;;;;1873210;76;21141;-70
2021/06/01 03:20:17;;;;;;;12.30;10.08;;;15.30;99.90;;;;;;1915340;73;21085;-70
2021/06/01 03:22:45;;;;;;;18.15;10.38;;;15.20;99.90;;;;;;1923970;73;21085;-70
2021/06/01 03:25:13;;;;;;;13.00;9.68;;;15.30;99.90;;;;;;1924761;73;21353;-70
2021/06/01 03:27:41;;;;;;;11.85;9.58;;;15.20;99.90;;;;;;1923099;73;21109;-71
2021/06/01 03:30:11;;;;;;;13.98;10.80;;;15.20;99.90;;;;;;1923868;74;21132;-70
2021/06/01 03:32:39;;;;;;;17.60;10.63;;;15.10;99.90;;;;;;1924358;73;21072;-69
2021/06/01 03:35:07;;;;;;;14.83;10.55;;;15.10;99.90;;;;;;1922551;73;21129;-69
2021/06/01 03:37:35;;;;;;;13.58;9.85;;;15.10;99.90;;;;;;1922271;73;21078;-69
2021/06/01 03:40:05;;;;;;;11.05;9.90;;;15.10;99.90;;;;;;1923737;73;21369;-69
2021/06/01 03:42:33;;;;;;;13.22;9.83;;;15.10;99.90;;;;;;1924884;73;21375;-70
2021/06/01 03:45:01;;;;;;;14.18;10.35;;;15.10;99.90;;;;;;1925675;73;21135;-70
2021/06/01 03:47:28;;;;;;;12.85;10.72;;;15.10;99.90;;;;;;1923745;74;21077;-70
2021/06/01 03:49:57;;;;;;;12.05;10.05;;;15.10;99.90;;;;;;1923721;74;21119;-69
2021/06/01 03:52:25;;;;;;;13.98;10.58;;;15.10;99.90;;;;;;1923659;73;21110;-70
2021/06/01 03:54:52;;;;;;;16.20;10.70;;;15.10;99.90;;;;;;1922493;73;21125;-70
2021/06/01 03:57:20;;;;;;;13.38;10.63;;;15.10;99.90;;;;;;1926777;73;21086;-69
2021/06/01 03:59:47;;;;;;;12.85;10.53;;;15.10;99.90;;;;;;1924982;73;21030;-70
2021/06/01 04:02:15;;;;;;;14.13;10.25;;;15.10;99.90;;;;;;1923686;73;21484;-70
2021/06/01 04:05:02;;;;;;;16.15;11.28;;;15.10;99.90;;;;;;1926145;74;21153;-70
2021/06/01 04:07:30;;;;;;;14.45;11.63;;;15.10;99.90;;;;;;1902655;73;21076;-70
2021/06/01 04:09:57;;;;;;;14.93;12.53;;;15.10;99.90;;;;;;1901811;73;21007;-70
2021/06/01 04:12:25;;;;;;;12.85;10.88;;;15.10;99.90;;;;;;1897385;75;21087;-70
2021/06/01 04:14:52;;;;;;;17.42;12.15;;;15.10;99.90;;;;;;1929962;73;21121;-70
2021/06/01 04:17:20;;;;;;;18.85;12.43;;;15.10;99.90;;;;;;1935235;73;21089;-70
2021/06/01 04:19:47;;;;;;;15.68;10.68;;;15.10;99.90;;;;;;1936256;73;21038;-70
2021/06/01 04:22:15;;;;;;;15.98;11.88;;;15.20;99.90;;;;;;1934158;73;21155;-69
2021/06/01 04:24:42;;;;;;;16.37;12.30;;;15.20;99.90;;;;;;1934527;73;21195;-70
2021/06/01 04:27:10;;;;;;;18.85;12.25;;;15.20;99.90;;;;;;1935477;73;21112;-69
2021/06/01 04:29:37;;;;;;;18.07;12.37;;;15.20;99.90;;;;;;1936220;73;22032;-69
2021/06/01 04:32:05;;;;;;;17.90;13.48;;;15.30;99.90;;;;;;1934618;73;21073;-69
2021/06/01 04:34:33;;;;;;;18.95;12.85;;;15.20;99.90;;;;;;1935956;73;21125;-70
2021/06/01 04:37:00;;;;;;;20.23;13.32;;;15.20;99.90;;;;;;1931962;73;21081;-70
2021/06/01 04:39:28;;;;;;;12.68;11.35;;;15.30;99.90;;;;;;1937188;73;21088;-68
2021/06/01 04:41:55;;;;;;;18.52;13.05;;;15.30;99.90;;;;;;1934310;73;21581;-68
2021/06/01 04:44:23;;;;;;;21.15;12.30;;;15.30;99.90;;;;;;1932694;73;21124;-69
2021/06/01 04:46:50;;;;;;;21.15;12.95;;;15.30;99.90;;;;;;1937390;73;21117;-70
2021/06/01 04:49:18;;;;;;;33.38;13.85;;;15.40;99.90;;;;;;1940200;73;21073;-70
2021/06/01 04:51:45;;;;;;;25.52;12.75;;;15.40;99.90;;;;;;1935545;73;21143;-70
2021/06/01 04:54:13;;;;;;;24.15;12.68;;;15.50;99.90;;;;;;1914690;73;21101;-70
2021/06/01 04:56:40;;;;;;;20.57;12.37;;;15.60;99.90;;;;;;1886711;74;21154;-70
2021/06/01 04:59:08;;;;;;;18.00;12.18;;;15.60;99.90;;;;;;1886819;75;21093;-69
2021/06/01 05:01:35;;;;;;;18.60;13.03;;;15.60;99.90;;;;;;1887286;75;21140;-69
2021/06/01 05:04:03;;;;;;;17.37;12.37;;;15.70;99.90;;;;;;1890736;74;21210;-69
2021/06/01 05:06:30;;;;;;;15.78;10.82;;;15.70;99.90;;;;;;1883281;75;21167;-70
2021/06/01 05:08:58;;;;;;;16.30;11.28;;;15.70;99.90;;;;;;1864204;76;21077;-70
2021/06/01 05:11:25;;;;;;;14.70;10.48;;;15.90;99.90;;;;;;1922392;74;21063;-70
2021/06/01 05:13:53;;;;;;;11.28;9.60;;;15.90;99.90;;;;;;1920873;74;21099;-70
2021/06/01 05:16:20;;;;;;;14.05;10.15;;;15.90;99.90;;;;;;1925287;74;21073;-70
2021/06/01 05:18:49;;;;;;;13.43;10.00;;;16.00;99.90;;;;;;1920756;74;21012;-69
2021/06/01 05:21:16;;;;;;;15.32;9.75;;;16.00;99.90;;;;;;1924256;74;21034;-69
2021/06/01 05:23:44;;;;;;;10.58;9.13;;;16.10;99.90;;;;;;1922023;74;21113;-69
2021/06/01 05:26:11;;;;;;;16.17;9.70;;;16.20;99.90;;;;;;1922773;74;21082;-69
2021/06/01 05:28:39;;;;;;;13.22;8.78;;;16.20;99.90;;;;;;1924681;74;21556;-69
2021/06/01 05:31:23;;;;;;;11.30;8.90;;;16.30;99.90;;;;;;1928221;74;20991;-69
2021/06/01 05:33:54;;;;;;;11.38;8.53;;;16.40;99.90;;;;;;1927947;74;21129;-70
2021/06/01 05:36:19;;;;;;;11.88;8.28;;;16.50;99.90;;;;;;1925578;74;21361;-70
2021/06/01 05:38:47;;;;;;;10.48;8.40;;;16.50;99.90;;;;;;1932638;74;21100;-70
2021/06/01 05:41:14;;;;;;;10.55;7.75;;;16.60;99.90;;;;;;1930367;74;21159;-70
2021/06/01 05:43:42;;;;;;;15.03;8.60;;;16.70;99.90;;;;;;1929952;73;21174;-70
2021/06/01 05:46:10;;;;;;;9.15;7.22;;;16.80;99.90;;;;;;1932344;74;21203;-70
2021/06/01 05:48:38;;;;;;;8.60;7.00;;;16.90;99.90;;;;;;1931242;74;21658;-70
2021/06/01 05:51:05;;;;;;;9.55;6.72;;;17.00;99.90;;;;;;1930133;74;21140;-72
2021/06/01 05:53:33;;;;;;;12.25;7.15;;;17.00;99.90;;;;;;1929980;74;21086;-72
2021/06/01 05:56:01;;;;;;;14.18;7.42;;;17.10;99.90;;;;;;1924316;74;21086;-72
2021/06/01 05:58:28;;;;;;;10.50;7.37;;;17.20;99.90;;;;;;1933849;74;21151;-72
2021/06/01 06:00:56;;;;;;;9.43;6.75;;;17.20;99.90;;;;;;1933062;74;21047;-72
2021/06/01 06:03:24;;;;;;;9.85;6.65;;;17.30;99.90;;;;;;1928894;74;21168;-72
2021/06/01 06:05:52;;;;;;;10.78;7.15;;;17.40;99.90;;;;;;1930368;74;21031;-70
2021/06/01 06:08:21;;;;;;;13.95;6.83;;;17.40;99.90;;;;;;1930775;74;21187;-70
2021/06/01 06:10:50;;;;;;;10.70;7.00;;;17.50;99.90;;;;;;1934333;74;21023;-69
2021/06/01 06:13:18;;;;;;;10.58;6.83;;;17.50;99.90;;;;;;1925602;74;21040;-70
2021/06/01 06:15:45;;;;;;;9.65;7.28;;;17.60;99.90;;;;;;1924794;74;21100;-70
2021/06/01 06:18:34;;;;;;;12.28;7.03;;;17.70;99.90;;;;;;1919919;74;21167;-69
2021/06/01 06:21:04;;;;;;;11.10;7.10;;;17.70;99.90;;;;;;1921558;74;21544;-69
2021/06/01 06:23:33;;;;;;;9.58;6.65;;;17.80;99.90;;;;;;1916952;74;21161;-68
2021/06/01 06:26:01;;;;;;;12.15;7.00;;;17.90;99.90;;;;;;1922200;74;22656;-73
2021/06/01 06:28:31;;;;;;;9.48;6.58;;;18.00;99.90;;;;;;1921036;74;21082;-68
2021/06/01 06:30:59;;;;;;;12.18;6.70;;;18.00;99.90;;;;;;1919704;74;21059;-69
2021/06/01 06:33:29;;;;;;;11.70;6.30;;;18.10;99.90;;;;;;1920260;74;21106;-70
2021/06/01 06:35:57;;;;;;;12.60;6.37;;;18.20;99.90;;;;;;1920782;74;22110;-69
2021/06/01 06:38:25;;;;;;;9.83;5.60;;;18.30;99.90;;;;;;1918842;74;22054;-69
2021/06/01 06:41:10;;;;;;;11.22;5.70;;;18.40;99.90;;;;;;1919040;74;21171;-68
2021/06/01 06:43:28;;;;;;;11.53;5.55;;;18.40;99.90;;;;;;1914450;74;21227;-69
2021/06/01 06:45:55;;;;;;;7.95;5.60;;;18.50;99.90;;;;;;1917431;74;21669;-68
2021/06/01 06:48:23;;;;;;;8.13;5.70;;;18.50;99.90;;;;;;1919996;74;21553;-69
2021/06/01 06:50:50;;;;;;;12.95;6.05;;;18.60;99.90;;;;;;1916516;74;21571;-68
2021/06/01 06:53:18;;;;;;;9.95;5.90;;;18.70;99.90;;;;;;1921240;74;21171;-68
2021/06/01 06:55:46;;;;;;;7.53;6.08;;;18.80;99.90;;;;;;1923124;74;21089;-70
2021/06/01 06:58:13;;;;;;;12.25;6.50;;;18.90;99.90;;;;;;1920761;74;21027;-70
2021/06/01 07:00:41;;;;;;;7.30;5.67;;;18.90;99.90;;;;;;1921492;74;21159;-70
2021/06/01 07:03:08;;;;;;;9.40;6.08;;;19.00;99.90;;;;;;1923535;74;21408;-69
2021/06/01 07:05:36;;;;;;;9.20;5.95;;;19.00;99.90;;;;;;1924522;74;21008;-70
2021/06/01 07:08:04;;;;;;;8.18;5.53;;;19.10;99.90;;;;;;1920738;74;21164;-71
2021/06/01 07:10:31;;;;;;;12.43;6.10;;;19.10;99.90;;;;;;1919612;74;21074;-70
2021/06/01 07:13:12;;;;;;;11.65;6.00;;;19.10;99.90;;;;;;1923039;74;21078;-70
2021/06/01 07:15:45;;;;;;;11.38;6.00;;;19.20;99.90;;;;;;1906516;74;21101;-71
2021/06/01 07:18:14;;;;;;;12.73;5.97;;;19.20;99.90;;;;;;1873166;76;21082;-72
2021/06/01 07:20:41;;;;;;;9.33;5.55;;;19.20;99.90;;;;;;1881446;74;21611;-71
2021/06/01 07:23:10;;;;;;;8.60;5.25;;;19.20;99.90;;;;;;1924564;74;21074;-71
2021/06/01 07:25:38;;;;;;;9.28;5.40;;;19.30;99.90;;;;;;1930883;74;21720;-70
2021/06/01 07:28:06;;;;;;;7.50;5.33;;;19.40;99.90;;;;;;1928399;74;21101;-70
2021/06/01 07:30:33;;;;;;;8.88;5.20;;;19.40;99.90;;;;;;1929393;74;21099;-71
2021/06/01 07:33:01;;;;;;;10.20;5.08;;;19.40;99.90;;;;;;1930417;74;21638;-71
2021/06/01 07:35:30;;;;;;;8.80;5.25;;;19.40;99.90;;;;;;1932119;74;21106;-71
2021/06/01 07:37:57;;;;;;;9.83;5.40;;;19.40;99.90;;;;;;1928423;74;22103;-70
2021/06/01 07:40:26;;;;;;;8.90;5.22;;;19.50;99.90;;;;;;1927323;74;21203;-73
2021/06/01 07:42:53;;;;;;;12.00;5.17;;;19.50;99.90;;;;;;1921861;74;21114;-71
2021/06/01 07:45:22;;;;;;;10.95;6.05;;;19.50;99.90;;;;;;1920045;73;21121;-71
2021/06/01 07:47:50;;;;;;;31.00;6.17;;;19.50;99.90;;;;;;1921946;74;21151;-71
2021/06/01 07:50:17;;;;;;;13.55;5.28;;;19.60;99.90;;;;;;1920330;74;21052;-72
2021/06/01 07:52:45;;;;;;;9.88;5.33;;;19.60;99.90;;;;;;1916024;74;21196;-72
2021/06/01 07:55:12;;;;;;;7.80;5.00;;;19.70;99.90;;;;;;1918995;74;21118;-69
2021/06/01 07:57:40;;;;;;;15.70;5.55;;;19.70;99.90;;;;;;1922299;74;21593;-70
2021/06/01 08:00:10;;;;;;;7.35;5.12;;;19.80;99.90;;;;;;1919111;74;22053;-70
2021/06/01 08:02:37;;;;;;;8.18;4.90;;;19.90;99.90;;;;;;1920805;74;21044;-71
2021/06/01 08:05:05;;;;;;;9.33;4.45;;;19.90;99.90;;;;;;1932036;74;21082;-70
2021/06/01 08:07:33;;;;;;;11.33;4.50;;;20.00;99.90;;;;;;1932028;74;21661;-70
2021/06/01 08:10:03;;;;;;;8.53;4.10;;;20.00;99.90;;;;;;1932976;73;21458;-71
2021/06/01 08:12:31;;;;;;;6.87;4.17;;;20.10;99.90;;;;;;1928478;74;21560;-71
2021/06/01 08:14:58;;;;;;;8.05;4.75;;;20.10;99.90;;;;;;1932564;74;21493;-71
2021/06/01 08:17:26;;;;;;;8.43;4.80;;;20.20;99.90;;;;;;1929148;74;21151;-71
2021/06/01 08:19:55;;;;;;;10.00;4.53;;;20.30;99.90;;;;;;1928527;74;21118;-74
2021/06/01 08:24:52;;;;;;;9.38;4.33;;;20.40;99.90;;;;;;1931309;74;21207;-72
2021/06/01 08:27:19;;;;;;;6.95;4.53;;;20.50;99.90;;;;;;1933794;74;21047;-72
2021/06/01 08:29:47;;;;;;;8.20;3.90;;;20.50;99.90;;;;;;1929809;74;21081;-71
2021/06/01 08:32:14;;;;;;;8.53;4.12;;;20.60;99.90;;;;;;1931544;74;21574;-71
2021/06/01 08:34:42;;;;;;;6.78;4.30;;;20.70;99.90;;;;;;1929447;74;21179;-71
2021/06/01 08:37:10;;;;;;;8.75;4.97;;;20.80;99.90;;;;;;1927381;74;21035;-73
2021/06/01 08:39:38;;;;;;;10.20;4.80;;;20.90;99.90;;;;;;1932332;73;21685;-73
2021/06/01 08:42:06;;;;;;;11.12;5.25;;;20.90;99.90;;;;;;1923447;74;21092;-73
2021/06/01 08:44:33;;;;;;;11.10;6.72;;;20.90;99.90;;;;;;1926239;74;21047;-73
2021/06/01 08:47:04;;;;;;;10.08;6.53;;;21.00;99.90;;;;;;1928943;74;21199;-73
2021/06/01 08:49:33;;;;;;;10.15;4.50;;;21.10;99.90;;;;;;1925821;74;21031;-73
2021/06/01 08:52:00;;;;;;;9.98;4.15;;;21.20;99.90;;;;;;1932766;74;21199;-73
2021/06/01 08:54:29;;;;;;;7.70;5.03;;;21.30;99.90;;;;;;1924254;74;21128;-73
2021/06/01 08:56:56;;;;;;;8.83;4.22;;;21.40;99.90;;;;;;1929051;74;21179;-72
2021/06/01 08:59:25;;;;;;;8.53;5.15;;;21.50;99.90;;;;;;1928067;74;21098;-72
2021/06/01 09:01:52;;;;;;;9.30;4.87;;;21.60;99.90;;;;;;1929076;74;21497;-72
2021/06/01 09:04:20;;;;;;;11.88;4.75;;;21.60;99.90;;;;;;1923581;74;21145;-72
2021/06/01 09:06:56;;;;;;;10.20;4.67;;;21.70;99.90;;;;;;1926613;74;21486;-73
2021/06/01 09:22:55;;;;;;;9.95;4.47;;;22.10;99.90;;;;;;1928876;74;21592;-72
2021/06/01 09:25:42;;;;;;;7.45;4.22;;;22.10;99.90;;;;;;1927778;74;21124;-73
2021/06/01 09:28:10;;;;;;;10.98;4.25;;;22.20;99.90;;;;;;1928528;74;21618;-73
2021/06/01 09:30:58;;;;;;;6.90;3.90;;;22.20;99.90;;;;;;1927720;74;21079;-74
2021/06/01 09:33:25;;;;;;;7.70;4.28;;;22.20;99.90;;;;;;1927847;73;21606;-73
2021/06/01 09:35:56;;;;;;;9.75;4.42;;;22.30;99.90;;;;;;1925970;73;21098;-74
2021/06/01 09:38:32;;;;;;;5.92;4.20;;;22.40;99.90;;;;;;1932897;74;22207;-74
2021/06/01 09:41:20;;;;;;;6.15;3.87;;;22.50;99.70;;;;;;1911687;74;21728;-74
2021/06/01 09:44:02;;;;;;;9.43;4.42;;;22.50;99.90;;;;;;1924601;74;21185;-74
2021/06/01 09:46:34;;;;;;;8.53;4.28;;;22.50;99.90;;;;;;1930882;74;21082;-74
2021/06/01 09:49:17;;;;;;;9.93;3.90;;;22.50;99.90;;;;;;1927351;74;21078;-74
2021/06/01 09:51:57;;;;;;;8.95;3.90;;;22.50;99.00;;;;;;1929053;74;21109;-74
2021/06/01 09:54:37;;;;;;;7.47;4.17;;;22.60;98.30;;;;;;1929626;74;21193;-74
2021/06/01 09:57:21;;;;;;;5.70;3.52;;;22.60;99.30;;;;;;1933316;74;21054;-74
2021/06/01 10:00:16;;;;;;;6.28;3.40;;;22.70;98.40;;;;;;1930852;74;21018;-74
2021/06/01 10:02:45;;;;;;;6.70;3.52;;;22.80;97.30;;;;;;1932083;74;21665;-74
2021/06/01 10:05:20;;;;;;;5.78;3.40;;;22.90;99.40;;;;;;1929924;74;21137;-73
2021/06/01 10:07:49;;;;;;;6.35;3.70;;;23.00;97.90;;;;;;1927536;74;21171;-73
2021/06/01 10:10:29;;;;;;;8.65;3.70;;;23.10;97.50;;;;;;1929978;74;21511;-71
2021/06/01 10:12:58;;;;;;;10.30;3.20;;;23.10;97.70;;;;;;1925877;74;21602;-72
2021/06/01 10:15:28;;;;;;;7.53;3.20;;;23.20;95.60;;;;;;1928896;74;21714;-71
2021/06/01 10:17:56;;;;;;;9.18;3.80;;;23.30;96.20;;;;;;1929761;73;21694;-73
2021/06/01 10:20:26;;;;;;;9.90;4.00;;;23.30;97.20;;;;;;1930523;74;21071;-73
2021/06/01 10:22:55;;;;;;;9.88;3.95;;;23.30;96.50;;;;;;1936890;74;21156;-73
2021/06/01 10:25:23;;;;;;;9.63;3.55;;;23.40;94.60;;;;;;1923658;74;21200;-73
2021/06/01 10:27:52;;;;;;;10.98;3.58;;;23.60;92.20;;;;;;1935615;74;21199;-74
2021/06/01 10:30:21;;;;;;;8.60;3.52;;;23.60;91.80;;;;;;1931746;74;21163;-76
2021/06/01 10:32:55;;;;;;;6.65;3.20;;;23.60;93.30;;;;;;1928605;74;21118;-73
2021/06/01 10:35:24;;;;;;;5.05;3.02;;;23.70;92.10;;;;;;1931820;74;21104;-73
2021/06/01 10:52:03;;;;;;;3.92;2.92;;;24.00;93.60;;;;;;1929147;74;21180;-74
2021/06/01 10:54:48;;;;;;;8.13;3.65;;;24.10;93.20;;;;;;1929074;74;21179;-75
2021/06/01 10:57:17;;;;;;;6.95;3.27;;;24.10;93.30;;;;;;1928096;74;21583;-72
2021/06/01 11:02:28;;;;;;;8.60;3.67;;;24.20;93.50;;;;;;1930087;74;21646;-72
2021/06/01 11:05:13;;;;;;;6.08;3.42;;;24.30;93.50;;;;;;1930869;74;21152;-72
2021/06/01 11:07:59;;;;;;;10.55;3.65;;;24.40;94.90;;;;;;1927911;74;21086;-72
2021/06/01 11:10:46;;;;;;;5.80;3.30;;;24.40;94.70;;;;;;1932276;74;21199;-73
2021/06/01 11:13:25;;;;;;;4.72;3.02;;;24.30;92.40;;;;;;1928468;74;21078;-73
2021/06/01 11:15:57;;;;;;;5.60;3.60;;;24.30;94.00;;;;;;1929064;74;21070;-73
2021/06/01 11:18:41;;;;;;;;;;;24.20;93.70;;;;;;1930806;74;21070;-73
2021/06/01 11:21:35;;;;;;;7.85;3.62;;;24.30;93.70;;;;;;1926717;74;20183;-71
2021/06/01 11:33:38;;;;;;;8.45;3.42;;;24.30;95.30;;;;;;1928580;74;21675;-72
2021/06/01 11:35:24;;;;;;;6.15;3.80;;;24.30;94.10;;;;;;1884543;74;21129;-71
2021/06/01 11:37:59;;;;;;;4.83;3.33;;;24.30;92.20;;;;;;1928053;74;21117;-73
2021/06/01 11:40:32;;;;;;;;;;;24.40;93.30;;;;;;1939127;74;21639;-74
2021/06/01 11:43:12;;;;;;;14.90;3.27;;;24.50;95.20;;;;;;1928694;74;20175;-75
2021/06/01 11:53:51;;;;;;;5.58;3.30;;;24.70;93.20;;;;;;1924889;74;21199;-75
2021/06/01 12:02:33;;;;;;;8.43;3.33;;;24.80;93.40;;;;;;1927888;73;21125;-72
2021/06/01 12:18:56;;;;;;;6.60;3.40;;;25.00;90.40;;;;;;1927068;74;21248;-74
2021/06/01 12:21:34;;;;;;;5.80;3.08;;;25.00;90.10;;;;;;1925878;74;21081;-76
2021/06/01 12:24:12;;;;;;;5.55;3.42;;;25.10;88.10;;;;;;1924883;74;21509;-76
2021/06/01 12:26:58;;;;;;;5.62;3.00;;;25.20;89.50;;;;;;1926420;74;21571;-75
2021/06/01 12:32:15;;;;;;;7.45;3.33;;;25.30;89.80;;;;;;1928846;74;21495;-76
2021/06/01 12:43:25;;;;;;;4.60;2.87;;;25.40;91.60;;;;;;1929257;74;21206;-77
2021/06/01 13:07:21;;;;;;;5.90;2.90;;;25.60;87.40;;;;;;1929534;74;21134;-73
2021/06/01 13:19:15;;;;;;;7.10;3.30;;;25.60;86.80;;;;;;1928727;74;21232;-74
2021/06/01 13:20:39;;;;;;;4.90;2.98;;;25.70;88.10;;;;;;1924778;74;21147;-75
2021/06/01 13:46:48;;;;;;;6.65;3.33;;;26.30;88.50;;;;;;1930756;74;21564;-70
2021/06/01 13:48:45;;;;;;;4.28;3.08;;;26.40;87.40;;;;;;1904462;74;21112;-69
2021/06/01 13:56:18;;;;;;;5.78;2.80;;;26.40;80.00;;;;;;1930130;74;21496;-71
2021/06/01 13:59:06;;;;;;;3.65;2.87;;;26.30;79.60;;;;;;1926268;74;21168;-69
2021/06/01 14:09:59;;;;;;;6.37;3.12;;;26.20;85.50;;;;;;1926897;74;21130;-72
2021/06/01 14:20:55;;;;;;;7.62;3.00;;;26.10;77.70;;;;;;1931329;74;21836;-74
2021/06/01 14:37:04;;;;;;;6.47;3.20;;;26.10;78.20;;;;;;1931598;74;21176;-74
2021/06/01 14:39:40;;;;;;;8.98;3.22;;;26.10;80.00;;;;;;1926204;74;21093;-74
2021/06/01 16:15:09;;;;;;;6.10;2.60;;;25.80;84.40;;;;;;1926980;74;21125;-75
2021/06/01 16:23:00;;;;;;;4.40;2.58;;;26.00;83.60;;;;;;1931568;74;21203;-73
2021/06/01 16:42:13;;;;;;;4.22;2.83;;;25.50;85.80;;;;;;1927712;74;21106;-71
2021/06/01 17:03:07;;;;;;;4.70;2.85;;;25.40;85.90;;;;;;1929554;74;21575;-72
2021/06/01 17:04:21;;;;;;;6.67;3.50;;;25.00;90.20;;;;;;1928438;74;21118;-72
2021/06/01 17:06:47;;;;;;;5.30;3.30;;;24.90;90.20;;;;;;1927308;74;21296;-72
2021/06/01 17:11:55;;;;;;;6.03;2.85;;;24.80;90.20;;;;;;1860258;76;21121;-72
2021/06/01 17:14:27;;;;;;;4.20;2.87;;;24.80;90.30;;;;;;1910417;74;21618;-71
2021/06/01 17:17:06;;;;;;;;;;;24.70;90.30;;;;;;1932254;74;21163;-72
2021/06/01 17:36:13;;;;;;;5.40;3.08;;;24.60;91.10;;;;;;1927016;74;21082;-74
2021/06/01 17:38:41;;;;;;;5.83;3.35;;;24.60;91.00;;;;;;1886019;75;21580;-73
2021/06/01 17:41:13;;;;;;;4.95;3.05;;;24.50;91.20;;;;;;1887971;75;21074;-80
2021/06/01 17:43:42;;;;;;;11.50;3.60;;;24.60;92.20;;;;;;1889010;75;21215;-75
2021/06/01 17:46:15;;;;;;;16.20;3.87;;;24.50;91.60;;;;;;1904761;75;21100;-74
2021/06/01 17:48:54;;;;;;;6.33;3.50;;;24.50;92.10;;;;;;1902142;74;21083;-74
2021/06/01 17:51:18;;;;;;;6.17;3.55;;;24.50;92.40;;;;;;1908555;75;21177;-76
2021/06/01 17:53:48;;;;;;;12.18;3.75;;;24.40;91.90;;;;;;1908129;75;21120;-75
2021/06/01 17:56:25;;;;;;;8.08;3.72;;;24.40;92.30;;;;;;1906050;75;21008;-73
2021/06/01 17:58:53;;;;;;;5.42;3.17;;;24.30;91.70;;;;;;1903232;74;21043;-72
2021/06/01 18:01:24;;;;;;;3.87;3.37;;;24.30;92.20;;;;;;1904342;75;21200;-72
2021/06/01 18:03:59;;;;;;;7.08;3.20;;;24.20;92.20;;;;;;1913671;75;21094;-73
2021/06/01 18:06:41;;;;;;;9.48;3.35;;;24.20;92.40;;;;;;1905073;75;21630;-72
2021/06/01 18:11:58;;;;;;;8.35;3.80;;;24.10;92.50;;;;;;1902342;75;21117;-77
2021/06/01 18:37:14;;;;;;;10.13;3.83;;;23.70;95.60;;;;;;1941882;73;22261;-75
2021/06/01 19:21:26;;;;;;;7.45;4.20;;;23.10;97.30;;;;;;1943015;73;21109;-74
2021/06/01 19:50:27;;;;;;;6.28;3.70;;;22.50;98.80;;;;;;1946864;73;21179;-70
2021/06/01 19:52:55;;;;;;;7.25;4.15;;;22.40;99.00;;;;;;1942210;73;21058;-70
2021/06/01 19:55:26;;;;;;;8.25;4.15;;;22.40;99.50;;;;;;1943798;72;21112;-69